createdAt,value
2019-03-09T00:00:59.693Z,71.30
2019-03-09T00:03:28.110Z,71.33
2019-03-09T00:05:56.650Z,71.16
2019-03-09T00:08:25.114Z,71.23
2019-03-09T00:10:53.751Z,71.49
2019-03-09T00:13:22.300Z,71.48
2019-03-09T00:15:51.203Z,71.90
2019-03-09T00:18:19.796Z,71.50
2019-03-09T00:20:48.237Z,71.81
2019-03-09T00:23:21.119Z,71.56
2019-03-09T00:26:07.433Z,71.65
2019-03-09T00:28:40.443Z,71.75
2019-03-09T00:31:26.658Z,71.99
2019-03-09T00:33:55.138Z,71.92
2019-03-09T00:36:23.570Z,72.29
2019-03-09T00:38:52.008Z,72.25
2019-03-09T00:41:20.585Z,72.31
2019-03-09T00:43:49.019Z,72.17
2019-03-09T00:46:17.470Z,72.23
2019-03-09T00:48:45.945Z,72.26
2019-03-09T00:51:14.702Z,72.19
2019-03-09T00:53:43.178Z,72.14
2019-03-09T00:56:12.106Z,72.20
2019-03-09T00:58:40.617Z,72.32
2019-03-09T01:01:09.068Z,72.23
2019-03-09T01:03:37.609Z,72.34
2019-03-09T01:06:06.212Z,72.24
2019-03-09T01:08:34.934Z,72.29
2019-03-09T01:11:03.674Z,72.34
2019-03-09T01:13:32.153Z,72.56
2019-03-09T01:16:00.709Z,73.15
2019-03-09T01:18:29.205Z,73.69
2019-03-09T01:20:57.693Z,73.95
2019-03-09T01:23:28.570Z,74.32
2019-03-09T01:25:57.478Z,74.51
2019-03-09T01:28:25.948Z,75.21
2019-03-09T01:30:54.425Z,75.25
2019-03-09T01:33:22.879Z,75.96
2019-03-09T01:38:14.004Z,76.29
2019-03-09T01:40:42.660Z,76.56
2019-03-09T01:43:11.093Z,77.15
2019-03-09T01:45:39.679Z,77.06
2019-03-09T01:48:08.133Z,77.39
2019-03-09T01:50:36.747Z,77.30
2019-03-09T01:53:05.503Z,77.39
2019-03-09T01:55:33.930Z,77.50
2019-03-09T01:58:02.765Z,77.49
2019-03-09T02:00:31.353Z,77.51
2019-03-09T02:02:59.792Z,77.40
2019-03-09T02:05:28.319Z,77.40
2019-03-09T02:07:56.778Z,77.45
2019-03-09T02:10:25.212Z,78.02
2019-03-09T02:12:54.516Z,78.03
2019-03-09T02:15:23.060Z,78.29
2019-03-09T02:17:51.720Z,79.07
2019-03-09T02:20:20.149Z,78.85
2019-03-09T02:22:48.665Z,79.76
2019-03-09T02:25:17.107Z,79.84
2019-03-09T02:27:45.728Z,79.47
2019-03-09T02:30:16.700Z,80.04
2019-03-09T02:32:45.222Z,80.28
2019-03-09T02:35:14.923Z,80.81
2019-03-09T02:37:43.401Z,80.77
2019-03-09T02:40:14.463Z,80.95
2019-03-09T02:42:43.123Z,81.22
2019-03-09T02:45:17.962Z,81.40
2019-03-09T02:47:46.409Z,81.63
2019-03-09T02:50:16.081Z,81.75
2019-03-09T02:52:45.145Z,81.78
2019-03-09T02:55:14.193Z,81.79
2019-03-09T02:57:42.626Z,82.14
2019-03-09T03:00:14.063Z,82.02
2019-03-09T03:02:52.772Z,82.33
2019-03-09T03:05:21.317Z,82.40
2019-03-09T03:07:51.066Z,82.64
2019-03-09T03:10:19.525Z,83.41
2019-03-09T03:12:47.978Z,83.28
2019-03-09T03:15:33.444Z,83.24
2019-03-09T03:18:02.299Z,83.49
2019-03-09T03:20:30.946Z,83.47
2019-03-09T03:22:59.351Z,83.60
2019-03-09T03:25:28.276Z,83.88
2019-03-09T03:27:56.727Z,83.97
2019-03-09T03:30:25.172Z,83.98
2019-03-09T03:32:55.610Z,84.36
2019-03-09T03:35:24.047Z,84.71
2019-03-09T03:37:52.561Z,84.53
2019-03-09T03:40:21.037Z,85.13
2019-03-09T03:42:49.490Z,85.20
2019-03-09T03:45:17.943Z,85.71
2019-03-09T03:47:46.441Z,85.54
2019-03-09T03:50:14.936Z,85.35
2019-03-09T03:52:43.369Z,85.72
2019-03-09T03:55:12.188Z,85.59
2019-03-09T03:57:40.984Z,85.82
2019-03-09T04:00:12.450Z,85.83
2019-03-09T04:02:40.915Z,85.91
2019-03-09T04:05:09.586Z,86.11
2019-03-09T04:07:38.653Z,86.35
2019-03-09T04:10:09.907Z,86.40
2019-03-09T04:12:38.339Z,86.03
2019-03-09T04:15:07.824Z,86.37
2019-03-09T04:17:36.328Z,86.43
2019-03-09T04:20:06.954Z,86.46
2019-03-09T04:22:35.385Z,86.39
2019-03-09T04:25:04.912Z,86.80
2019-03-09T04:27:33.506Z,86.87
2019-03-09T04:30:01.969Z,86.98
2019-03-09T04:32:30.665Z,87.24
2019-03-09T04:34:59.109Z,87.46
2019-03-09T04:37:27.631Z,87.33
2019-03-09T04:39:56.083Z,87.66
2019-03-09T04:42:24.523Z,87.63
2019-03-09T04:44:53.219Z,87.90
2019-03-09T04:47:22.025Z,88.00
2019-03-09T04:49:50.834Z,87.91
2019-03-09T04:52:19.293Z,87.81
2019-03-09T04:54:47.930Z,88.17
2019-03-09T04:57:16.365Z,88.34
2019-03-09T04:59:44.815Z,88.49
2019-03-09T05:02:13.290Z,88.43
2019-03-09T05:04:44.171Z,88.67
2019-03-09T05:07:15.253Z,88.77
2019-03-09T05:10:02.228Z,88.68
2019-03-09T05:12:32.843Z,88.88
2019-03-09T05:15:01.277Z,88.79
2019-03-09T05:17:29.754Z,88.86
2019-03-09T05:19:58.187Z,88.77
2019-03-09T05:22:26.633Z,88.96
2019-03-09T05:24:55.353Z,88.98
2019-03-09T05:27:23.794Z,88.98
2019-03-09T05:29:52.425Z,88.74
2019-03-09T05:32:20.853Z,88.59
2019-03-09T05:34:49.462Z,88.07
2019-03-09T05:37:17.917Z,87.64
2019-03-09T05:39:46.472Z,87.08
2019-03-09T05:42:14.890Z,86.84
2019-03-09T05:44:43.326Z,86.47
2019-03-09T05:47:11.808Z,86.21
2019-03-09T05:49:40.241Z,85.75
2019-03-09T05:52:23.988Z,85.72
2019-03-09T05:54:52.425Z,85.41
2019-03-09T05:57:20.866Z,85.08
2019-03-09T05:59:49.679Z,84.97
2019-03-09T06:02:18.246Z,84.74
2019-03-09T06:04:46.742Z,84.63
2019-03-09T06:07:15.295Z,84.25
2019-03-09T06:09:43.809Z,84.28
2019-03-09T06:12:12.242Z,84.11
2019-03-09T06:14:40.723Z,83.44
2019-03-09T06:17:09.410Z,83.27
2019-03-09T06:19:38.213Z,83.07
2019-03-09T06:22:06.722Z,83.22
2019-03-09T06:24:35.167Z,83.20
2019-03-09T06:27:03.616Z,83.25
2019-03-09T06:29:32.177Z,82.97
2019-03-09T06:32:32.586Z,83.03
2019-03-09T06:35:01.086Z,82.84
2019-03-09T06:37:31.582Z,82.77
2019-03-09T06:40:00.018Z,82.94
2019-03-09T06:42:31.949Z,83.01
2019-03-09T06:45:00.397Z,82.98
2019-03-09T06:47:29.086Z,83.05
2019-03-09T06:49:57.563Z,82.89
2019-03-09T06:52:26.090Z,82.57
2019-03-09T06:54:54.514Z,81.79
2019-03-09T06:57:22.988Z,81.17
2019-03-09T06:59:51.423Z,79.79
2019-03-09T07:02:20.254Z,79.97
2019-03-09T07:04:48.858Z,79.44
2019-03-09T07:07:17.341Z,78.98
2019-03-09T07:09:45.848Z,78.85
2019-03-09T07:12:14.321Z,78.84
2019-03-09T07:15:00.816Z,78.66
2019-03-09T07:17:29.297Z,78.71
2019-03-09T07:19:57.736Z,77.68
2019-03-09T07:22:26.583Z,77.19
2019-03-09T07:24:55.571Z,76.77
2019-03-09T07:27:24.169Z,76.41
2019-03-09T07:29:52.613Z,75.67
2019-03-09T07:32:21.074Z,74.48
2019-03-09T07:34:49.504Z,74.47
2019-03-09T07:37:17.945Z,74.47
2019-03-09T07:39:46.431Z,74.42
2019-03-09T07:42:14.851Z,73.59
2019-03-09T07:44:43.323Z,73.11
2019-03-09T07:47:12.424Z,72.71
2019-03-09T07:49:40.924Z,72.37
2019-03-09T07:52:31.497Z,72.44
2019-03-09T07:55:00.001Z,72.57
2019-03-09T07:57:28.432Z,73.15
2019-03-09T07:59:56.901Z,73.45
2019-03-09T08:02:25.344Z,73.61
2019-03-09T08:04:53.823Z,73.71
2019-03-09T08:07:22.337Z,73.83
2019-03-09T08:09:50.771Z,73.76
2019-03-09T08:12:19.503Z,73.24
2019-03-09T08:14:48.008Z,73.15
2019-03-09T08:17:16.524Z,73.06
2019-03-09T08:19:44.991Z,73.02
2019-03-09T08:22:13.798Z,73.39
2019-03-09T08:24:42.331Z,73.63
2019-03-09T08:27:10.776Z,72.97
2019-03-09T08:29:39.791Z,72.71
2019-03-09T08:32:08.237Z,72.88
2019-03-09T08:34:36.778Z,72.08
2019-03-09T08:37:05.283Z,72.00
2019-03-09T08:39:33.730Z,71.45
2019-03-09T08:42:02.181Z,71.15
2019-03-09T08:44:30.632Z,70.89
2019-03-09T08:46:59.062Z,70.66
2019-03-09T08:49:27.671Z,70.06
2019-03-09T08:51:56.228Z,70.23
2019-03-09T08:54:25.036Z,70.02
2019-03-09T08:56:53.492Z,69.79
2019-03-09T08:59:21.997Z,69.91
2019-03-09T09:01:50.681Z,70.05
2019-03-09T09:04:19.178Z,70.61
2019-03-09T09:06:47.650Z,72.48
2019-03-09T09:09:16.088Z,74.35
2019-03-09T09:11:44.638Z,75.63
2019-03-09T09:14:13.116Z,77.44
2019-03-09T09:16:41.798Z,79.52
2019-03-09T09:19:10.235Z,80.64
2019-03-09T09:21:38.839Z,81.03
2019-03-09T09:24:07.283Z,80.84
2019-03-09T09:26:35.789Z,80.32
2019-03-09T09:29:04.980Z,79.94
2019-03-09T09:31:33.423Z,79.70
2019-03-09T09:34:01.878Z,79.12
2019-03-09T09:36:30.342Z,78.45
2019-03-09T09:38:58.779Z,78.01
2019-03-09T09:41:27.618Z,75.82
2019-03-09T09:43:56.283Z,75.34
2019-03-09T09:46:24.714Z,74.12
2019-03-09T09:48:53.152Z,71.64
2019-03-09T09:51:21.746Z,70.90
2019-03-09T09:53:50.189Z,69.52
2019-03-09T09:56:18.650Z,69.85
2019-03-09T09:58:47.201Z,69.50
2019-03-09T10:01:15.929Z,69.08
2019-03-09T10:03:44.545Z,69.35
2019-03-09T10:06:13.290Z,69.32
2019-03-09T10:08:41.729Z,68.55
2019-03-09T10:11:10.172Z,68.00
2019-03-09T10:13:38.778Z,69.05
2019-03-09T10:16:07.221Z,70.36
2019-03-09T10:18:35.934Z,71.66
2019-03-09T10:21:04.706Z,72.29
2019-03-09T10:23:35.034Z,73.50
2019-03-09T10:26:05.059Z,73.60
2019-03-09T10:28:34.163Z,72.89
2019-03-09T10:31:03.026Z,72.71
2019-03-09T10:33:32.146Z,69.62
2019-03-09T10:36:00.673Z,68.26
2019-03-09T10:38:29.175Z,67.46
2019-03-09T10:40:57.625Z,67.52
2019-03-09T10:43:26.238Z,67.92
2019-03-09T10:45:55.079Z,67.14
2019-03-09T10:48:23.564Z,67.76
2019-03-09T10:50:52.051Z,67.07
2019-03-09T10:53:20.484Z,67.01
2019-03-09T10:55:48.924Z,66.34
2019-03-09T10:58:17.621Z,65.78
2019-03-09T11:00:46.232Z,65.78
2019-03-09T11:03:14.737Z,65.38
2019-03-09T11:05:43.775Z,66.29
2019-03-09T11:08:12.234Z,65.22
2019-03-09T11:10:40.700Z,64.49
2019-03-09T11:13:10.371Z,63.91
2019-03-09T11:15:38.813Z,62.89
2019-03-09T11:18:07.330Z,63.65
2019-03-09T11:20:35.791Z,63.26
2019-03-09T11:23:04.229Z,63.16
2019-03-09T11:25:32.765Z,62.92
2019-03-09T11:28:06.993Z,63.20
2019-03-09T11:30:35.563Z,63.15
2019-03-09T11:33:04.375Z,63.05
2019-03-09T11:35:33.470Z,62.02
2019-03-09T11:38:02.162Z,60.94
2019-03-09T11:40:30.890Z,61.22
2019-03-09T11:43:00.790Z,61.44
2019-03-09T11:45:30.946Z,61.35
2019-03-09T11:47:59.459Z,61.22
2019-03-09T11:50:27.928Z,60.66
2019-03-09T11:52:56.581Z,59.74
2019-03-09T11:55:25.275Z,58.14
2019-03-09T11:57:53.790Z,57.79
2019-03-09T12:00:24.914Z,57.53
2019-03-09T12:02:53.410Z,56.87
2019-03-09T12:05:22.030Z,56.47
2019-03-09T12:07:50.757Z,56.81
2019-03-09T12:10:19.287Z,55.32
2019-03-09T12:12:50.667Z,54.82
2019-03-09T12:15:19.380Z,55.63
2019-03-09T12:21:17.568Z,56.43
2019-03-09T12:23:46.056Z,57.03
2019-03-09T12:26:14.503Z,57.32
2019-03-09T12:28:42.990Z,57.44
2019-03-09T12:31:11.442Z,58.07
2019-03-09T12:33:39.914Z,58.57
2019-03-09T12:36:08.723Z,58.70
2019-03-09T12:38:37.207Z,58.51
2019-03-09T12:41:05.659Z,58.13
2019-03-09T12:43:34.177Z,58.32
2019-03-09T12:46:02.611Z,57.77
2019-03-09T12:48:31.071Z,58.03
2019-03-09T12:50:59.484Z,58.08
2019-03-09T12:53:27.956Z,58.06
2019-03-09T12:55:56.501Z,57.63
2019-03-09T12:58:24.951Z,57.19
2019-03-09T13:00:55.896Z,57.04
2019-03-09T13:03:24.337Z,56.88
2019-03-09T13:05:52.783Z,56.58
2019-03-09T13:08:23.448Z,56.82
2019-03-09T13:10:56.008Z,56.73
2019-03-09T13:13:24.566Z,56.98
2019-03-09T13:15:53.379Z,56.97
2019-03-09T13:18:21.878Z,57.00
2019-03-09T13:20:50.525Z,57.09
2019-03-09T13:23:19.575Z,57.46
2019-03-09T13:25:48.012Z,57.69
2019-03-09T13:28:16.464Z,58.09
2019-03-09T13:30:45.245Z,58.31
2019-03-09T13:33:13.699Z,58.04
2019-03-09T13:35:42.371Z,57.60
2019-03-09T13:38:10.931Z,57.25
2019-03-09T13:40:39.472Z,56.79
2019-03-09T13:43:07.979Z,56.31
2019-03-09T13:45:36.691Z,56.39
2019-03-09T13:48:05.130Z,56.54
2019-03-09T13:50:33.575Z,56.39
2019-03-09T13:53:02.287Z,55.96
2019-03-09T13:55:31.119Z,56.27
2019-03-09T13:57:59.568Z,56.52
2019-03-09T14:00:28.038Z,56.77
2019-03-09T14:02:56.468Z,57.15
2019-03-09T14:05:25.077Z,57.26
2019-03-09T14:07:53.635Z,57.47
2019-03-09T14:10:22.098Z,56.13
2019-03-09T14:12:51.000Z,55.33
2019-03-09T14:15:19.875Z,55.78
2019-03-09T14:17:48.319Z,55.52
2019-03-09T14:20:17.634Z,55.44
2019-03-09T14:22:46.319Z,54.87
2019-03-09T14:25:16.298Z,54.23
2019-03-09T14:27:44.801Z,54.18
2019-03-09T14:30:16.200Z,53.91
2019-03-09T14:32:44.631Z,53.87
2019-03-09T14:35:13.864Z,53.88
2019-03-09T14:37:42.320Z,53.75
2019-03-09T14:40:13.469Z,54.20
2019-03-09T14:42:42.209Z,53.97
2019-03-09T14:45:16.766Z,54.04
2019-03-09T14:47:45.563Z,54.33
2019-03-09T14:50:14.538Z,54.92
2019-03-09T14:52:43.547Z,55.55
2019-03-09T14:55:12.911Z,58.26
2019-03-09T14:57:41.598Z,59.97
2019-03-09T15:00:13.290Z,62.16
2019-03-09T15:02:41.920Z,64.18
2019-03-09T15:05:10.570Z,64.26
2019-03-09T15:07:39.521Z,64.56
2019-03-09T15:10:10.114Z,64.87
2019-03-09T15:12:38.527Z,64.65
2019-03-09T15:15:10.108Z,64.70
2019-03-09T15:17:38.554Z,64.62
2019-03-09T15:20:10.014Z,64.82
2019-03-09T15:22:38.907Z,64.94
2019-03-09T15:25:10.485Z,64.63
2019-03-09T15:27:38.931Z,64.42
2019-03-09T15:30:10.804Z,64.03
2019-03-09T15:32:39.339Z,63.42
2019-03-09T15:35:08.919Z,63.22
2019-03-09T15:37:37.405Z,62.77
2019-03-09T15:40:08.918Z,62.14
2019-03-09T15:42:37.651Z,61.49
2019-03-09T15:45:09.550Z,60.75
2019-03-09T15:47:38.046Z,60.24
2019-03-09T15:50:12.322Z,60.24
2019-03-09T15:52:41.099Z,60.03
2019-03-09T15:55:10.642Z,59.82
2019-03-09T15:57:39.615Z,59.35
2019-03-09T16:00:17.652Z,59.54
2019-03-09T16:02:46.291Z,60.00
2019-03-09T16:05:15.079Z,62.27
2019-03-09T16:07:44.117Z,66.74
2019-03-09T16:10:15.392Z,68.14
2019-03-09T16:12:43.817Z,70.81
2019-03-09T16:15:14.966Z,72.41
2019-03-09T16:17:43.653Z,73.53
2019-03-09T16:20:14.637Z,75.12
2019-03-09T16:22:44.023Z,77.11
2019-03-09T16:25:13.036Z,77.17
2019-03-09T16:27:41.808Z,77.64
2019-03-09T16:30:20.995Z,78.95
2019-03-09T16:32:51.111Z,79.10
2019-03-09T16:35:19.661Z,79.48
2019-03-09T16:37:49.323Z,80.27
2019-03-09T16:40:20.552Z,80.81
2019-03-09T16:42:55.616Z,81.36
2019-03-09T16:45:24.054Z,81.15
2019-03-09T16:47:52.578Z,81.71
2019-03-09T16:50:21.260Z,82.22
2019-03-09T16:52:49.761Z,81.91
2019-03-09T16:55:18.216Z,82.11
2019-03-09T16:57:46.738Z,82.53
2019-03-09T17:00:17.758Z,82.82
2019-03-09T17:02:46.415Z,82.85
2019-03-09T17:05:30.677Z,82.89
2019-03-09T17:08:04.968Z,83.56
2019-03-09T17:10:33.574Z,83.75
2019-03-09T17:13:02.117Z,83.48
2019-03-09T17:15:30.548Z,84.06
2019-03-09T17:18:02.625Z,83.63
2019-03-09T17:20:30.751Z,84.04
2019-03-09T17:22:59.148Z,84.19
2019-03-09T17:25:27.580Z,84.36
2019-03-09T17:27:56.382Z,84.27
2019-03-09T17:30:25.082Z,84.74
2019-03-09T17:32:53.731Z,85.05
2019-03-09T17:35:22.446Z,85.32
2019-03-09T17:37:51.111Z,85.70
2019-03-09T17:40:20.609Z,85.90
2019-03-09T17:42:49.174Z,86.19
2019-03-09T17:45:22.715Z,86.12
2019-03-09T17:47:51.324Z,86.24
2019-03-09T17:50:20.033Z,86.25
2019-03-09T17:52:50.496Z,81.97
2019-03-09T17:55:19.773Z,81.60
2019-03-09T17:57:48.240Z,79.92
2019-03-09T18:00:41.835Z,80.25
2019-03-09T18:03:01.568Z,80.56
2019-03-09T18:05:30.006Z,80.87
2019-03-09T18:07:58.711Z,81.62
2019-03-09T18:10:42.141Z,81.77
2019-03-09T18:13:10.585Z,82.27
2019-03-09T18:15:39.268Z,82.04
2019-03-09T18:18:07.845Z,82.44
2019-03-09T18:20:36.460Z,82.76
2019-03-09T18:23:05.649Z,82.97
2019-03-09T18:25:34.159Z,83.04
2019-03-09T18:28:02.573Z,83.22
2019-03-09T18:30:32.157Z,82.76
2019-03-09T18:33:00.802Z,82.97
2019-03-09T18:35:29.240Z,83.02
2019-03-09T18:37:57.687Z,83.20
2019-03-09T18:40:26.621Z,83.44
2019-03-09T18:42:55.076Z,83.53
2019-03-09T18:45:24.582Z,83.66
2019-03-09T18:47:53.066Z,83.65
2019-03-09T18:50:21.546Z,83.84
2019-03-09T18:52:50.090Z,83.72
2019-03-09T18:55:18.756Z,83.58
2019-03-09T18:57:53.271Z,83.34
2019-03-09T19:00:22.561Z,83.26
2019-03-09T19:02:51.438Z,83.19
2019-03-09T19:05:20.719Z,83.12
2019-03-09T19:07:49.326Z,82.90
2019-03-09T19:10:20.538Z,82.81
2019-03-09T19:12:49.412Z,82.61
2019-03-09T19:15:18.958Z,82.39
2019-03-09T19:17:47.856Z,82.47
2019-03-09T19:20:21.777Z,82.58
2019-03-09T19:22:50.311Z,82.71
2019-03-09T19:25:18.774Z,82.55
2019-03-09T19:27:47.248Z,82.42
2019-03-09T19:30:20.868Z,82.56
2019-03-09T19:32:59.558Z,82.28
2019-03-09T19:35:20.273Z,82.20
2019-03-09T19:37:48.732Z,82.10
2019-03-09T19:40:19.403Z,82.04
2019-03-09T19:42:47.838Z,81.92
2019-03-09T19:45:17.939Z,81.75
2019-03-09T19:47:46.547Z,81.68
2019-03-09T19:50:26.334Z,81.54
2019-03-09T19:52:55.111Z,81.42
2019-03-09T19:55:23.561Z,81.15
2019-03-09T19:57:52.012Z,81.01
2019-03-09T20:00:22.052Z,80.70
2019-03-09T20:02:50.829Z,80.51
2019-03-09T20:05:19.588Z,79.99
2019-03-09T20:07:48.035Z,79.68
2019-03-09T20:10:19.610Z,79.25
2019-03-09T20:12:48.690Z,78.45
2019-03-09T20:15:18.777Z,78.32
2019-03-09T20:17:47.258Z,78.10
2019-03-09T20:20:17.674Z,78.04
2019-03-09T20:22:46.380Z,77.43
2019-03-09T20:25:15.007Z,77.00
2019-03-09T20:27:43.526Z,76.85
2019-03-09T20:30:19.206Z,76.77
2019-03-09T20:32:47.858Z,76.53
2019-03-09T20:35:16.297Z,76.25
2019-03-09T20:37:50.643Z,76.38
2019-03-09T20:40:19.200Z,76.52
2019-03-09T20:42:47.730Z,76.61
2019-03-09T20:45:17.747Z,76.58
2019-03-09T20:47:46.215Z,76.53
2019-03-09T20:50:22.347Z,76.52
2019-03-09T20:52:50.959Z,76.36
2019-03-09T20:55:19.393Z,76.17
2019-03-09T20:57:49.373Z,76.07
2019-03-09T21:00:19.732Z,76.02
2019-03-09T21:02:48.385Z,75.98
2019-03-09T21:05:16.833Z,76.15
2019-03-09T21:07:45.303Z,75.93
2019-03-09T21:10:19.365Z,75.76
2019-03-09T21:13:02.460Z,75.94
2019-03-09T21:15:31.003Z,75.53
2019-03-09T21:17:59.454Z,75.54
2019-03-09T21:20:28.698Z,75.41
2019-03-09T21:22:57.217Z,75.15
2019-03-09T21:25:26.180Z,75.03
2019-03-09T21:27:54.985Z,74.79
2019-03-09T21:30:23.596Z,74.63
2019-03-09T21:32:52.105Z,74.51
2019-03-09T21:35:20.577Z,74.52
2019-03-09T21:37:49.098Z,74.51
2019-03-09T21:40:17.774Z,74.42
2019-03-09T21:42:46.263Z,74.16
2019-03-09T21:45:15.323Z,74.06
2019-03-09T21:47:43.836Z,73.62
2019-03-09T21:50:17.671Z,73.60
2019-03-09T21:52:46.106Z,73.18
2019-03-09T21:55:15.795Z,72.83
2019-03-09T21:57:44.253Z,72.72
2019-03-09T22:00:20.072Z,72.71
2019-03-09T22:02:50.409Z,72.57
2019-03-09T22:05:19.127Z,72.57
2019-03-09T22:07:47.716Z,72.59
2019-03-09T22:10:17.107Z,72.45
2019-03-09T22:12:46.447Z,72.52
2019-03-09T22:15:16.232Z,72.46
2019-03-09T22:17:52.162Z,72.48
2019-03-09T22:20:20.890Z,72.45
2019-03-09T22:22:49.500Z,72.51
2019-03-09T22:25:18.439Z,72.50
2019-03-09T22:27:46.890Z,72.67
2019-03-09T22:30:17.140Z,72.82
2019-03-09T22:32:47.395Z,72.88
2019-03-09T22:35:18.979Z,72.99
2019-03-09T22:38:45.450Z,73.16
2019-03-09T22:48:23.802Z,73.78
2019-03-09T22:50:56.109Z,74.34
2019-03-09T22:53:31.288Z,74.60
2019-03-09T22:56:20.954Z,74.74
2019-03-09T22:58:49.525Z,75.09
2019-03-09T23:01:21.554Z,75.47
2019-03-09T23:03:55.753Z,75.58
2019-03-09T23:06:24.194Z,75.93
2019-03-09T23:08:52.641Z,75.99
2019-03-09T23:11:21.697Z,76.01
2019-03-09T23:13:50.351Z,76.28
2019-03-09T23:16:20.211Z,76.63
2019-03-09T23:18:48.748Z,76.67
2019-03-09T23:21:17.183Z,76.71
2019-03-09T23:23:45.620Z,77.18
2019-03-09T23:26:14.459Z,77.38
2019-03-09T23:28:47.486Z,77.70
2019-03-09T23:31:17.084Z,77.95
2019-03-09T23:34:13.503Z,77.94
2019-03-09T23:36:43.401Z,77.97
2019-03-09T23:39:14.622Z,78.48
2019-03-09T23:41:43.894Z,78.42
2019-03-09T23:44:12.378Z,78.35
2019-03-09T23:46:56.153Z,78.47
2019-03-09T23:50:01.485Z,78.56
2019-03-09T23:52:30.048Z,78.70
2019-03-09T23:54:58.561Z,78.70
2019-03-09T23:57:27.023Z,78.75
